Time;durP1;ratioP1;P1;durP2;ratioP2;P2;SDS_P1;SDS_P2;PMS_P1;PMS_P2;Temp;Humidity;BMP_temperature;BMP_pressure;BME280_temperature;BME280_humidity;BME280_pressure;Samples;Min_cycle;Max_cycle;Signal;HPM_P1;HPM_P2
2022/10/06 00:00:05;;;;;;;4.10;3.17;;;14.00;99.90;;;;;;5249588;28;20546;-47
2022/10/06 00:02:35;;;;;;;3.83;3.53;;;14.00;99.90;;;;;;5259910;28;20460;-47
2022/10/06 00:05:06;;;;;;;3.90;3.07;;;14.00;99.90;;;;;;5271256;28;20799;-46
2022/10/06 00:07:37;;;;;;;4.70;3.47;;;14.00;99.90;;;;;;5263133;28;20210;-46
2022/10/06 00:10:08;;;;;;;2.97;2.87;;;14.00;99.90;;;;;;5259419;28;20190;-47
2022/10/06 00:12:47;;;;;;;3.87;3.63;;;14.00;99.90;;;;;;5260670;28;20202;-45
2022/10/06 00:15:21;;;;;;;3.23;3.03;;;14.00;99.90;;;;;;5265881;28;20442;-47
2022/10/06 00:17:52;;;;;;;3.30;3.10;;;14.00;99.90;;;;;;5266686;28;20830;-47
2022/10/06 00:20:25;;;;;;;3.30;3.20;;;13.90;99.90;;;;;;5233481;28;20433;-47
2022/10/06 00:22:56;;;;;;;4.00;3.60;;;13.90;99.90;;;;;;5266856;28;20556;-47
2022/10/06 00:25:27;;;;;;;11.73;3.57;;;13.80;99.90;;;;;;5245508;28;20439;-48
2022/10/06 00:27:57;;;;;;;6.43;3.63;;;13.90;99.90;;;;;;5257995;28;20209;-47
2022/10/06 00:30:30;;;;;;;3.47;3.20;;;13.90;99.90;;;;;;5249903;28;20186;-48
2022/10/06 00:33:02;;;;;;;3.80;3.50;;;13.90;99.90;;;;;;5262179;28;20690;-47
2022/10/06 00:35:33;;;;;;;4.47;3.30;;;14.00;99.90;;;;;;5265532;28;20510;-46
2022/10/06 00:38:04;;;;;;;8.63;3.50;;;14.00;99.90;;;;;;5243416;28;20431;-47
2022/10/06 00:40:45;;;;;;;4.13;3.83;;;14.00;99.90;;;;;;5249085;28;20443;-47
2022/10/06 00:43:46;;;;;;;3.87;3.57;;;14.00;99.90;;;;;;5258791;28;20177;-47
2022/10/06 00:46:33;;;;;;;3.90;2.70;;;14.20;99.90;;;;;;5261789;28;20791;-46
2022/10/06 00:49:20;;;;;;;5.57;3.00;;;14.30;99.90;;;;;;5261329;28;21056;-47
2022/10/06 00:51:55;;;;;;;3.10;2.67;;;14.40;99.90;;;;;;5251522;28;20455;-46
2022/10/06 00:54:27;;;;;;;5.57;3.60;;;14.60;99.90;;;;;;5231376;28;20426;-47
2022/10/06 00:56:58;;;;;;;4.50;3.20;;;14.70;99.90;;;;;;5248251;28;20520;-47
2022/10/06 00:59:28;;;;;;;3.10;2.90;;;14.80;99.90;;;;;;5251533;28;20538;-49
2022/10/06 01:02:14;;;;;;;3.83;3.40;;;14.80;99.90;;;;;;5252034;28;20197;-50
2022/10/06 01:04:48;;;;;;;2.97;2.80;;;15.00;99.90;;;;;;5248638;28;20181;-47
2022/10/06 01:07:21;;;;;;;2.97;2.87;;;15.00;99.90;;;;;;5252934;28;20456;-47
2022/10/06 01:09:53;;;;;;;7.20;2.60;;;15.00;99.90;;;;;;5252172;28;20428;-48
2022/10/06 01:12:26;;;;;;;4.57;2.93;;;15.10;99.90;;;;;;5247578;28;20612;-47
2022/10/06 01:14:57;;;;;;;2.90;2.57;;;15.10;99.90;;;;;;5266114;28;20436;-47
2022/10/06 01:17:44;;;;;;;3.33;3.10;;;15.10;99.90;;;;;;5270627;28;20546;-46
2022/10/06 01:20:17;;;;;;;3.13;2.60;;;15.20;99.90;;;;;;5267670;28;20176;-48
2022/10/06 01:22:54;;;;;;;3.33;3.03;;;15.20;99.90;;;;;;5248744;28;20448;-46
2022/10/06 01:25:25;;;;;;;3.00;2.73;;;15.30;99.90;;;;;;5251659;28;20944;-46
2022/10/06 01:27:56;;;;;;;3.13;3.03;;;15.30;99.90;;;;;;5277194;28;20521;-48
2022/10/06 01:30:31;;;;;;;3.07;2.73;;;15.20;99.90;;;;;;5251373;28;20491;-47
2022/10/06 01:33:02;;;;;;;2.53;2.33;;;15.10;99.90;;;;;;5247794;28;20439;-47
2022/10/06 01:35:32;;;;;;;2.77;2.67;;;15.10;99.90;;;;;;5268541;28;20407;-47
2022/10/06 01:38:03;;;;;;;2.27;2.17;;;15.10;99.90;;;;;;5263019;28;20295;-48
2022/10/06 01:40:34;;;;;;;2.80;2.70;;;15.00;99.90;;;;;;5251499;28;20649;-48
2022/10/06 01:43:04;;;;;;;2.30;2.13;;;15.00;99.90;;;;;;5265277;28;20247;-48
2022/10/06 01:45:35;;;;;;;18.20;7.67;;;14.90;99.90;;;;;;5269025;28;20185;-47
2022/10/06 01:48:06;;;;;;;22.23;9.33;;;14.80;99.90;;;;;;5249135;28;20209;-48
2022/10/06 01:50:40;;;;;;;6.47;4.80;;;14.70;99.90;;;;;;5268566;28;20621;-52
2022/10/06 01:53:10;;;;;;;19.90;8.80;;;14.60;99.90;;;;;;5267201;28;20486;-46
2022/10/06 01:55:41;;;;;;;13.27;6.17;;;14.60;99.90;;;;;;5259994;28;20432;-47
2022/10/06 01:58:12;;;;;;;6.57;4.77;;;14.60;99.90;;;;;;5260350;28;20189;-48
2022/10/06 02:00:43;;;;;;;4.70;4.13;;;14.40;99.90;;;;;;5244099;28;20206;-48
2022/10/06 02:03:13;;;;;;;4.47;3.07;;;14.40;99.90;;;;;;5264092;28;20791;-49
2022/10/06 02:05:44;;;;;;;4.23;3.07;;;14.40;99.90;;;;;;5262119;28;20532;-47
2022/10/06 02:08:14;;;;;;;2.60;2.40;;;14.40;99.90;;;;;;5253091;28;20224;-49
2022/10/06 02:10:45;;;;;;;5.17;4.67;;;14.40;99.90;;;;;;5224566;28;20209;-47
2022/10/06 02:13:16;;;;;;;11.17;6.00;;;14.40;99.90;;;;;;5246489;28;20178;-47
2022/10/06 02:15:46;;;;;;;6.97;4.30;;;14.30;99.90;;;;;;5259949;28;20194;-48
2022/10/06 02:18:17;;;;;;;9.67;4.47;;;14.30;99.90;;;;;;5264419;28;20190;-47
2022/10/06 02:20:47;;;;;;;4.17;3.67;;;14.30;99.90;;;;;;5257729;28;20214;-47
2022/10/06 02:23:18;;;;;;;4.53;3.60;;;14.20;99.90;;;;;;5243461;28;20188;-47
2022/10/06 02:25:48;;;;;;;3.47;3.10;;;14.20;99.90;;;;;;5267646;28;20181;-47
2022/10/06 02:28:19;;;;;;;7.27;3.30;;;14.10;99.90;;;;;;5251231;28;20242;-46
2022/10/06 02:30:49;;;;;;;3.60;3.40;;;14.30;99.90;;;;;;5257358;28;20258;-48
2022/10/06 02:33:20;;;;;;;6.50;3.30;;;14.30;99.90;;;;;;5249209;28;20197;-48
2022/10/06 02:35:57;;;;;;;3.13;2.87;;;14.40;99.90;;;;;;5248645;28;20182;-48
2022/10/06 02:38:28;;;;;;;2.97;2.40;;;14.50;99.90;;;;;;5263329;28;20283;-47
2022/10/06 02:41:00;;;;;;;4.07;2.90;;;14.70;99.90;;;;;;5249728;28;20542;-47
2022/10/06 02:43:32;;;;;;;3.40;3.20;;;14.60;99.90;;;;;;5267238;28;20250;-48
2022/10/06 02:46:10;;;;;;;3.80;3.00;;;14.60;99.90;;;;;;5265878;28;20431;-49
2022/10/06 02:48:41;;;;;;;5.40;2.87;;;14.70;99.90;;;;;;5242750;28;20823;-46
2022/10/06 02:51:15;;;;;;;2.80;2.70;;;14.60;99.90;;;;;;5249341;28;20503;-47
2022/10/06 02:53:47;;;;;;;2.33;2.20;;;14.40;99.90;;;;;;5267466;28;20184;-49
2022/10/06 02:56:21;;;;;;;4.00;3.17;;;14.30;99.90;;;;;;5261343;28;20418;-47
2022/10/06 02:58:52;;;;;;;7.17;3.13;;;14.60;99.90;;;;;;5256555;28;20435;-49
2022/10/06 03:01:25;;;;;;;2.80;2.70;;;14.70;99.90;;;;;;5256345;28;20523;-48
2022/10/06 03:03:56;;;;;;;7.40;3.30;;;14.70;99.90;;;;;;5245161;28;20447;-47
2022/10/06 03:06:29;;;;;;;3.30;3.07;;;14.70;99.90;;;;;;5259563;28;20428;-47
2022/10/06 03:09:02;;;;;;;3.30;3.10;;;14.60;99.90;;;;;;5268222;28;20231;-48
2022/10/06 03:11:39;;;;;;;2.83;2.63;;;14.70;99.90;;;;;;5265687;28;20439;-48
2022/10/06 03:14:10;;;;;;;3.33;3.13;;;14.70;99.90;;;;;;5254355;28;20426;-47
2022/10/06 03:16:42;;;;;;;3.47;3.17;;;14.80;99.90;;;;;;5260447;28;20828;-46
2022/10/06 03:19:13;;;;;;;3.00;2.80;;;14.80;99.90;;;;;;5246582;28;20190;-46
2022/10/06 03:21:43;;;;;;;3.07;2.77;;;14.80;99.90;;;;;;5248155;28;20454;-45
2022/10/06 03:24:14;;;;;;;2.83;2.63;;;14.90;99.90;;;;;;5253210;28;20182;-48
2022/10/06 03:26:46;;;;;;;3.70;3.33;;;14.90;99.90;;;;;;5265031;28;20207;-50
2022/10/06 03:29:17;;;;;;;4.60;2.70;;;15.00;99.90;;;;;;5267236;28;20689;-47
2022/10/06 03:31:47;;;;;;;2.97;2.80;;;15.00;99.90;;;;;;5256567;28;20451;-47
2022/10/06 03:34:19;;;;;;;2.60;2.40;;;15.10;99.90;;;;;;5270904;28;20513;-46
2022/10/06 03:36:50;;;;;;;2.77;2.57;;;15.10;99.90;;;;;;5249942;28;20583;-47
2022/10/06 03:39:20;;;;;;;2.90;2.60;;;15.10;99.90;;;;;;5244234;28;20518;-47
2022/10/06 03:41:51;;;;;;;2.47;2.37;;;15.10;99.90;;;;;;5271021;28;20244;-51
2022/10/06 03:44:21;;;;;;;2.97;2.57;;;15.20;99.90;;;;;;5263845;28;20618;-51
2022/10/06 03:46:52;;;;;;;3.63;2.13;;;15.30;99.90;;;;;;5258924;28;20692;-50
2022/10/06 03:49:23;;;;;;;4.40;2.87;;;15.20;99.90;;;;;;5260739;28;20265;-51
2022/10/06 03:51:53;;;;;;;3.57;3.00;;;15.30;99.90;;;;;;5248731;28;20190;-50
2022/10/06 03:54:24;;;;;;;2.47;2.47;;;15.40;99.90;;;;;;5263236;28;20557;-51
2022/10/06 03:56:54;;;;;;;2.80;2.70;;;15.40;99.90;;;;;;5262099;28;20257;-49
2022/10/06 03:59:27;;;;;;;4.30;2.63;;;15.50;99.90;;;;;;5268696;28;20256;-51
2022/10/06 04:01:58;;;;;;;3.40;2.60;;;15.50;99.90;;;;;;5252536;28;20547;-51
2022/10/06 04:04:29;;;;;;;2.50;2.40;;;15.50;99.90;;;;;;5252356;28;20443;-50
2022/10/06 04:06:59;;;;;;;2.87;2.67;;;15.50;99.90;;;;;;5248584;28;20205;-49
2022/10/06 04:09:30;;;;;;;2.83;2.70;;;15.60;99.90;;;;;;5234716;28;20178;-50
2022/10/06 04:12:00;;;;;;;3.43;2.10;;;15.60;99.90;;;;;;5265583;28;20181;-50
2022/10/06 04:14:31;;;;;;;2.63;2.53;;;15.60;99.90;;;;;;5264700;28;20184;-50
2022/10/06 04:17:02;;;;;;;3.07;2.27;;;15.60;99.90;;;;;;5254820;28;20548;-51
2022/10/06 04:19:32;;;;;;;2.00;1.83;;;15.70;99.90;;;;;;5265911;28;20264;-49
2022/10/06 04:22:03;;;;;;;3.33;2.00;;;15.60;99.90;;;;;;5252271;28;20207;-48
2022/10/06 04:24:33;;;;;;;2.30;2.07;;;15.60;99.90;;;;;;5264846;28;20185;-52
2022/10/06 04:30:07;;;;;;;1.90;1.90;;;15.50;99.90;;;;;;5253999;28;20185;-49
2022/10/06 04:32:37;;;;;;;3.50;1.30;;;15.50;99.90;;;;;;5270177;28;20450;-50
2022/10/06 04:35:09;;;;;;;1.60;1.40;;;15.60;99.90;;;;;;5235614;28;20455;-49
2022/10/06 04:37:39;;;;;;;1.30;1.20;;;15.60;99.90;;;;;;5266311;28;20177;-49
2022/10/06 04:40:10;;;;;;;1.07;0.97;;;15.60;99.90;;;;;;5265547;28;20865;-49
2022/10/06 04:42:42;;;;;;;1.57;1.50;;;15.60;99.90;;;;;;5247465;28;20304;-50
2022/10/06 04:45:12;;;;;;;1.63;1.47;;;15.70;99.90;;;;;;5267339;28;20533;-50
2022/10/06 04:47:43;;;;;;;1.00;0.90;;;15.60;99.90;;;;;;5270708;28;20455;-50
2022/10/06 04:50:13;;;;;;;0.83;0.83;;;15.60;99.90;;;;;;5244192;28;20185;-49
2022/10/06 04:52:44;;;;;;;2.60;0.70;;;15.70;99.90;;;;;;5256949;28;20295;-49
2022/10/06 04:55:14;;;;;;;1.40;0.70;;;15.70;99.90;;;;;;5251818;28;20182;-50
2022/10/06 04:57:45;;;;;;;0.83;0.83;;;15.70;99.90;;;;;;5264287;28;20205;-51
2022/10/06 05:00:22;;;;;;;0.70;0.70;;;15.70;99.90;;;;;;5268616;28;20199;-47
2022/10/06 05:02:56;;;;;;;0.67;0.63;;;15.80;99.90;;;;;;5243712;28;20181;-48
2022/10/06 05:05:27;;;;;;;1.53;0.77;;;15.80;99.90;;;;;;5251992;28;20923;-50
2022/10/06 05:07:58;;;;;;;0.70;0.70;;;15.70;99.90;;;;;;5243632;28;20453;-51
2022/10/06 05:10:28;;;;;;;5.80;1.60;;;15.80;99.90;;;;;;5252076;28;20575;-49
2022/10/06 05:12:59;;;;;;;2.10;1.07;;;15.80;99.90;;;;;;5256115;28;20197;-49
2022/10/06 05:15:29;;;;;;;1.50;0.60;;;15.80;99.90;;;;;;5262201;28;20504;-50
2022/10/06 05:18:00;;;;;;;1.90;0.60;;;15.80;99.90;;;;;;5249901;28;20186;-48
2022/10/06 05:20:31;;;;;;;0.70;0.70;;;15.70;99.90;;;;;;5238948;28;21103;-49
2022/10/06 05:23:05;;;;;;;0.80;0.80;;;15.70;99.90;;;;;;5259820;28;20197;-49
2022/10/06 05:25:36;;;;;;;0.70;0.70;;;15.60;99.90;;;;;;5251539;28;20193;-49
2022/10/06 05:28:06;;;;;;;0.50;0.50;;;15.60;99.90;;;;;;5238485;28;20545;-49
2022/10/06 05:30:37;;;;;;;0.93;0.90;;;15.60;99.90;;;;;;5244999;28;20184;-49
2022/10/06 05:33:09;;;;;;;5.13;1.00;;;15.60;99.90;;;;;;5261480;28;20228;-48
2022/10/06 05:35:53;;;;;;;2.60;0.70;;;15.60;99.90;;;;;;5250446;28;20204;-50
2022/10/06 05:38:24;;;;;;;0.47;0.40;;;15.60;99.90;;;;;;5254423;28;20478;-49
2022/10/06 05:41:10;;;;;;;2.97;0.70;;;15.50;99.90;;;;;;5238905;28;20468;-49
2022/10/06 05:43:42;;;;;;;4.87;0.43;;;15.40;99.90;;;;;;5235512;28;20845;-48
2022/10/06 05:46:26;;;;;;;5.00;0.87;;;15.40;99.90;;;;;;5240844;28;20432;-48
2022/10/06 05:48:59;;;;;;;1.37;0.70;;;15.30;99.90;;;;;;5252056;28;20433;-50
2022/10/06 05:51:31;;;;;;;0.60;0.60;;;15.30;99.90;;;;;;5231829;28;20507;-48
2022/10/06 05:54:02;;;;;;;0.60;0.60;;;15.30;99.90;;;;;;5261437;28;20462;-50
2022/10/06 05:56:36;;;;;;;1.33;0.60;;;15.30;99.90;;;;;;5257711;28;20435;-50
2022/10/06 05:59:07;;;;;;;0.40;0.40;;;15.30;99.90;;;;;;5249675;28;20208;-49
2022/10/06 06:01:42;;;;;;;0.40;0.33;;;15.30;99.90;;;;;;5242039;28;20486;-51
2022/10/06 06:04:13;;;;;;;0.40;0.40;;;15.30;99.90;;;;;;5238122;28;20194;-51
2022/10/06 06:06:45;;;;;;;1.33;0.37;;;15.20;99.90;;;;;;5262612;28;20519;-49
2022/10/06 06:09:20;;;;;;;5.30;0.80;;;15.10;99.90;;;;;;5231510;28;20649;-50
2022/10/06 06:11:53;;;;;;;0.97;0.97;;;15.10;99.90;;;;;;5243648;28;20448;-50
2022/10/06 06:17:13;;;;;;;0.67;0.67;;;14.90;99.90;;;;;;5249068;28;20517;-51
2022/10/06 06:19:44;;;;;;;0.77;0.50;;;15.20;99.90;;;;;;5243954;28;20483;-51
2022/10/06 06:22:14;;;;;;;6.20;0.80;;;17.00;99.90;;;;;;5252322;28;20253;-50
2022/10/06 06:24:45;;;;;;;1.43;0.63;;;19.30;99.90;;;;;;5249265;28;20184;-56
2022/10/06 06:27:16;;;;;;;2.30;0.80;;;21.40;90.00;;;;;;5242816;28;20300;-50
2022/10/06 06:29:46;;;;;;;0.67;0.67;;;23.30;71.80;;;;;;5247879;28;20226;-52
2022/10/06 06:32:17;;;;;;;3.60;0.77;;;24.50;59.70;;;;;;5259816;28;20221;-51
2022/10/06 06:34:47;;;;;;;1.77;0.70;;;25.00;55.20;;;;;;5239456;28;20186;-50
2022/10/06 06:37:18;;;;;;;0.93;0.87;;;24.30;54.50;;;;;;5251471;28;20672;-52
2022/10/06 06:39:48;;;;;;;0.30;0.30;;;24.80;54.40;;;;;;5260184;28;20642;-51
2022/10/06 06:42:19;;;;;;;0.83;0.70;;;25.10;53.90;;;;;;5281260;27;20228;-50
2022/10/06 06:44:49;;;;;;;1.07;0.67;;;26.10;50.80;;;;;;5260804;28;20520;-49
2022/10/06 06:47:21;;;;;;;0.60;0.60;;;25.90;49.00;;;;;;5255467;28;20277;-50
2022/10/06 06:49:52;;;;;;;0.60;0.60;;;25.60;48.90;;;;;;5250248;28;20181;-52
2022/10/06 06:52:24;;;;;;;1.30;0.70;;;25.60;49.60;;;;;;5266349;28;20539;-50
2022/10/06 06:54:56;;;;;;;0.33;0.33;;;25.50;49.60;;;;;;5246965;28;20199;-52
2022/10/06 06:57:26;;;;;;;3.93;0.80;;;26.30;48.10;;;;;;5256765;28;20943;-50
2022/10/06 07:00:06;;;;;;;0.97;0.70;;;26.30;47.10;;;;;;5257633;28;20458;-51
2022/10/06 07:02:37;;;;;;;0.50;0.50;;;25.30;48.90;;;;;;5251974;28;20686;-51
2022/10/06 07:05:10;;;;;;;1.20;1.10;;;24.70;50.00;;;;;;5266661;28;20444;-49
2022/10/06 07:07:40;;;;;;;3.33;1.10;;;23.30;52.60;;;;;;5264371;28;20275;-49
2022/10/06 07:10:11;;;;;;;3.13;1.23;;;22.70;54.90;;;;;;5249348;28;20431;-53
2022/10/06 07:12:44;;;;;;;0.70;0.60;;;23.10;55.10;;;;;;5269521;28;20644;-51
2022/10/06 07:26:31;;;;;;;2.20;1.00;;;26.80;47.70;;;;;;5266297;28;20443;-52
2022/10/06 07:29:01;;;;;;;1.20;0.60;;;26.50;46.70;;;;;;5248570;28;20555;-51
2022/10/06 07:31:34;;;;;;;1.03;0.93;;;24.60;49.70;;;;;;5268225;28;20202;-50
2022/10/06 07:34:06;;;;;;;1.40;1.30;;;23.90;51.50;;;;;;5250749;28;20210;-52
2022/10/06 07:36:37;;;;;;;1.63;1.53;;;23.10;53.70;;;;;;5266640;28;20415;-47
2022/10/06 07:39:09;;;;;;;1.33;0.80;;;22.00;55.40;;;;;;5266161;28;20420;-47
2022/10/06 07:41:39;;;;;;;2.77;0.77;;;20.60;58.20;;;;;;5252635;28;20349;-47
2022/10/06 07:44:10;;;;;;;0.93;0.90;;;19.40;61.90;;;;;;5251079;28;20519;-46
2022/10/06 07:46:42;;;;;;;3.07;0.53;;;18.70;65.90;;;;;;5250059;28;20191;-48
2022/10/06 07:49:16;;;;;;;2.87;0.93;;;18.20;68.50;;;;;;5256353;28;20186;-47
2022/10/06 07:51:46;;;;;;;2.20;1.00;;;18.00;71.60;;;;;;5264339;28;20784;-47
2022/10/06 07:54:17;;;;;;;1.70;1.10;;;17.90;75.00;;;;;;5261976;28;20418;-47
2022/10/06 07:56:47;;;;;;;1.57;1.47;;;17.80;77.40;;;;;;5252152;28;20637;-47
2022/10/06 07:59:19;;;;;;;1.83;0.60;;;17.60;80.40;;;;;;5268963;28;20189;-49
2022/10/06 08:01:51;;;;;;;2.10;1.00;;;17.40;82.10;;;;;;5251583;28;20209;-47
2022/10/06 08:04:21;;;;;;;2.37;1.07;;;17.20;86.10;;;;;;5255076;28;20496;-46
2022/10/06 08:06:56;;;;;;;4.80;1.50;;;17.00;88.80;;;;;;5264988;28;20468;-47
2022/10/06 08:09:29;;;;;;;1.60;1.00;;;16.80;90.70;;;;;;5259984;28;20179;-52
2022/10/06 08:12:31;;;;;;;8.83;1.77;;;16.70;91.90;;;;;;5261840;28;20450;-47
2022/10/06 08:14:50;;;;;;;3.60;1.43;;;16.60;91.80;;;;;;5267905;28;20431;-48
2022/10/06 08:17:21;;;;;;;2.23;1.30;;;16.60;92.70;;;;;;5269723;28;20792;-49
2022/10/06 08:19:53;;;;;;;4.50;1.00;;;16.40;92.80;;;;;;5264059;28;20189;-47
2022/10/06 08:22:28;;;;;;;3.23;1.10;;;16.20;93.00;;;;;;5248402;28;20245;-47
2022/10/06 08:24:59;;;;;;;5.80;1.37;;;16.10;93.80;;;;;;5264758;28;20440;-47
2022/10/06 08:27:34;;;;;;;4.97;0.90;;;16.10;94.30;;;;;;5264162;28;20467;-54
2022/10/06 08:30:06;;;;;;;12.43;1.40;;;16.20;94.30;;;;;;5245190;28;20192;-49
2022/10/06 08:32:37;;;;;;;3.07;1.50;;;16.30;93.70;;;;;;5254807;28;20448;-47
2022/10/06 08:35:09;;;;;;;2.10;1.07;;;16.40;94.00;;;;;;5234976;28;20444;-47
2022/10/06 08:37:40;;;;;;;10.23;2.00;;;16.50;93.60;;;;;;5239892;28;20440;-47
2022/10/06 08:40:13;;;;;;;4.43;1.53;;;16.80;93.00;;;;;;5237371;28;20431;-48
2022/10/06 08:42:47;;;;;;;13.33;1.50;;;17.00;91.20;;;;;;5252303;28;20583;-46
2022/10/06 08:45:39;;;;;;;11.93;1.97;;;17.00;91.30;;;;;;5255795;28;20424;-46
2022/10/06 08:48:15;;;;;;;5.27;1.10;;;17.30;91.00;;;;;;5259850;28;20820;-50
2022/10/06 08:51:24;;;;;;;3.30;0.97;;;17.30;88.70;;;;;;5263949;28;20467;-47
2022/10/06 08:54:12;;;;;;;4.17;1.40;;;17.40;86.50;;;;;;5235337;28;20449;-48
2022/10/06 08:57:09;;;;;;;0.90;0.90;;;17.40;83.30;;;;;;5247231;28;20423;-49
2022/10/06 08:59:43;;;;;;;2.03;1.07;;;17.60;82.40;;;;;;5248510;28;20908;-48
2022/10/06 09:02:38;;;;;;;12.60;1.40;;;17.70;80.80;;;;;;5241371;28;20455;-46
2022/10/06 09:05:12;;;;;;;4.77;1.23;;;17.80;79.50;;;;;;5254103;28;20442;-47
2022/10/06 09:08:05;;;;;;;2.23;1.13;;;17.60;79.40;;;;;;5251338;28;20496;-47
2022/10/06 09:10:42;;;;;;;7.17;1.80;;;17.40;80.60;;;;;;5258341;28;20439;-48
2022/10/06 09:13:18;;;;;;;5.30;1.40;;;17.00;82.20;;;;;;5238144;28;20509;-46
2022/10/06 09:16:07;;;;;;;7.83;1.47;;;16.60;83.40;;;;;;5259073;28;20423;-47
2022/10/06 09:18:48;;;;;;;1.77;1.43;;;16.40;83.80;;;;;;5249647;28;20655;-48
2022/10/06 09:21:29;;;;;;;4.30;1.23;;;16.20;82.50;;;;;;5234470;28;20453;-49
2022/10/06 09:24:10;;;;;;;2.43;0.97;;;16.00;82.50;;;;;;5249462;28;20428;-48
2022/10/06 09:26:43;;;;;;;4.23;1.40;;;15.90;82.30;;;;;;5256332;28;20776;-47
2022/10/06 09:29:15;;;;;;;6.33;1.40;;;15.90;83.30;;;;;;5256353;28;20456;-48
2022/10/06 09:31:49;;;;;;;2.33;1.20;;;16.10;83.20;;;;;;5243184;28;20819;-50
2022/10/06 09:34:28;;;;;;;1.50;0.83;;;16.10;81.50;;;;;;5261079;28;20421;-48
2022/10/06 09:37:03;;;;;;;3.40;1.60;;;16.10;81.70;;;;;;5249349;28;20935;-51
2022/10/06 09:39:37;;;;;;;4.00;1.43;;;16.00;82.90;;;;;;5241469;28;20872;-49
2022/10/06 09:42:19;;;;;;;3.53;1.50;;;15.90;84.10;;;;;;5262571;22;20492;-49
2022/10/06 09:44:55;;;;;;;1.70;1.10;;;15.80;85.70;;;;;;5249321;28;20420;-49
2022/10/06 09:47:32;;;;;;;10.00;1.17;;;16.00;86.70;;;;;;5248931;28;20463;-50
2022/10/06 09:50:11;;;;;;;3.57;1.60;;;16.20;86.40;;;;;;5250635;28;20443;-49
2022/10/06 09:53:00;;;;;;;5.43;1.90;;;16.60;84.50;;;;;;5234246;28;20550;-50
2022/10/06 09:55:36;;;;;;;5.83;1.60;;;16.90;81.40;;;;;;5238617;28;20456;-49
2022/10/06 09:58:25;;;;;;;4.60;1.57;;;17.20;78.40;;;;;;5234331;28;20528;-49
2022/10/06 10:00:59;;;;;;;3.30;1.87;;;17.40;76.70;;;;;;5228010;28;20421;-49
2022/10/06 10:03:50;;;;;;;12.30;6.40;;;17.50;75.10;;;;;;5218963;28;20501;-51
2022/10/06 10:06:25;;;;;;;9.60;3.13;;;17.50;74.30;;;;;;5236691;28;20452;-49
2022/10/06 10:09:26;;;;;;;6.33;2.90;;;17.60;73.50;;;;;;5226852;28;21059;-48
2022/10/06 10:12:24;;;;;;;1.30;1.20;;;17.50;72.30;;;;;;5234064;28;20483;-50
2022/10/06 10:14:58;;;;;;;2.97;1.47;;;17.40;71.70;;;;;;5218232;28;20430;-49
2022/10/06 10:17:31;;;;;;;2.73;1.20;;;17.30;70.30;;;;;;5237319;28;20508;-49
2022/10/06 10:20:07;;;;;;;6.37;1.87;;;17.10;71.00;;;;;;5245496;28;20428;-49
2022/10/06 10:22:40;;;;;;;2.40;1.40;;;17.00;70.00;;;;;;5232116;28;20457;-49
2022/10/06 10:25:32;;;;;;;4.30;1.53;;;17.00;70.70;;;;;;5238838;28;21023;-50
2022/10/06 10:28:22;;;;;;;3.80;2.47;;;16.90;71.00;;;;;;5245114;28;20448;-49
2022/10/06 10:31:13;;;;;;;10.70;5.10;;;16.90;71.80;;;;;;5224817;28;20433;-49
2022/10/06 10:34:15;;;;;;;15.13;2.87;;;17.00;72.10;;;;;;5222248;28;20414;-50
2022/10/06 10:36:56;;;;;;;3.13;1.70;;;17.00;70.40;;;;;;5219890;28;20417;-49
2022/10/06 10:39:37;;;;;;;3.57;1.23;;;16.90;70.10;;;;;;5228427;28;20499;-50
2022/10/06 10:42:23;;;;;;;5.17;1.50;;;16.80;69.40;;;;;;5232327;28;20554;-49
2022/10/06 10:44:59;;;;;;;5.37;1.67;;;16.70;68.50;;;;;;5220593;28;20601;-49
2022/10/06 10:47:37;;;;;;;2.53;1.37;;;16.70;69.90;;;;;;5226780;28;20456;-51
2022/10/06 10:50:27;;;;;;;2.80;1.70;;;16.80;71.40;;;;;;5223067;28;20453;-49
2022/10/06 10:53:07;;;;;;;6.90;1.43;;;17.00;69.30;;;;;;5220487;28;20485;-49
2022/10/06 10:55:41;;;;;;;4.03;1.20;;;17.10;69.10;;;;;;5221447;28;20525;-48
2022/10/06 10:58:35;;;;;;;1.20;1.10;;;17.30;68.00;;;;;;5217929;28;20537;-50
2022/10/06 11:01:28;;;;;;;9.23;1.53;;;17.40;67.40;;;;;;5223442;28;20963;-51
2022/10/06 11:03:59;;;;;;;3.50;1.60;;;17.60;67.70;;;;;;5228621;28;20519;-50
2022/10/06 11:06:45;;;;;;;3.27;1.60;;;17.70;66.00;;;;;;5226257;28;20559;-50
2022/10/06 11:09:28;;;;;;;2.20;0.80;;;17.80;65.80;;;;;;5223508;28;20925;-49
2022/10/06 11:12:32;;;;;;;6.87;3.07;;;18.00;65.00;;;;;;5235923;28;20452;-49
2022/10/06 11:15:09;;;;;;;3.00;1.90;;;18.30;64.60;;;;;;5233729;28;20468;-49
2022/10/06 11:17:43;;;;;;;2.70;1.67;;;18.50;62.80;;;;;;5234108;28;20486;-50
2022/10/06 11:20:33;;;;;;;2.43;1.83;;;18.40;61.60;;;;;;5218471;28;20447;-50
2022/10/06 11:23:42;;;;;;;6.37;0.90;;;18.10;62.90;;;;;;5235480;28;20479;-49
2022/10/06 11:26:41;;;;;;;3.60;2.60;;;17.90;63.10;;;;;;5163264;28;20455;-50
2022/10/06 11:29:26;;;;;;;4.63;1.83;;;17.60;63.40;;;;;;5157007;28;20547;-50
2022/10/06 11:32:23;;;;;;;5.20;1.47;;;17.50;64.10;;;;;;5223523;28;20502;-49
2022/10/06 11:34:54;;;;;;;4.70;1.77;;;17.50;63.60;;;;;;5219598;28;20921;-50
2022/10/06 11:37:46;;;;;;;2.80;1.53;;;17.60;63.60;;;;;;5219284;28;20429;-50
2022/10/06 11:40:48;;;;;;;3.17;1.80;;;17.70;63.80;;;;;;5237371;28;20916;-49
2022/10/06 11:44:13;;;;;;;35.97;16.53;;;18.10;63.10;;;;;;5239977;28;20819;-49
2022/10/06 11:46:57;;;;;;;6.70;2.20;;;18.10;63.40;;;;;;5145961;28;20424;-50
2022/10/06 11:49:28;;;;;;;6.07;2.80;;;18.10;63.70;;;;;;5217246;28;20428;-48
2022/10/06 11:52:04;;;;;;;1.67;1.30;;;18.00;63.50;;;;;;5246619;28;20448;-49
2022/10/06 11:54:54;;;;;;;4.97;2.27;;;18.00;61.00;;;;;;5243030;28;20261;-52
2022/10/06 11:57:25;;;;;;;8.00;2.53;;;17.90;61.30;;;;;;5234957;28;20521;-49
2022/10/06 12:00:16;;;;;;;4.70;2.37;;;17.80;61.20;;;;;;5239177;28;20977;-50
2022/10/06 12:02:46;;;;;;;3.67;1.17;;;17.50;61.80;;;;;;5242011;28;20454;-50
2022/10/06 12:05:18;;;;;;;3.00;1.30;;;17.40;62.90;;;;;;5240194;28;20436;-50
2022/10/06 12:07:51;;;;;;;4.37;2.10;;;17.30;63.80;;;;;;5250498;28;20233;-50
2022/10/06 12:10:28;;;;;;;3.23;1.67;;;17.40;63.50;;;;;;5262104;28;20487;-50
2022/10/06 12:13:15;;;;;;;1.33;1.23;;;17.40;61.00;;;;;;5260193;28;20478;-50
2022/10/06 12:16:15;;;;;;;2.53;1.87;;;17.40;60.20;;;;;;5241884;28;20424;-50
2022/10/06 12:19:01;;;;;;;5.30;1.20;;;17.50;60.30;;;;;;5238595;28;20472;-49
2022/10/06 12:21:46;;;;;;;4.37;1.27;;;17.70;61.10;;;;;;5231763;28;20457;-50
2022/10/06 12:24:43;;;;;;;1.67;1.57;;;17.90;61.40;;;;;;5245730;28;20935;-49
2022/10/06 12:27:29;;;;;;;5.50;1.50;;;18.00;61.50;;;;;;5234889;28;20774;-50
2022/10/06 12:30:41;;;;;;;3.27;1.70;;;18.30;60.80;;;;;;5222848;28;20440;-50
2022/10/06 12:33:17;;;;;;;3.43;1.50;;;18.30;60.20;;;;;;5220612;28;20451;-49
2022/10/06 12:36:00;;;;;;;3.23;1.40;;;18.40;60.00;;;;;;5236289;28;20456;-50
2022/10/06 12:38:34;;;;;;;12.27;4.83;;;18.40;59.00;;;;;;5239390;28;20559;-49
2022/10/06 12:41:11;;;;;;;9.63;5.60;;;18.30;58.60;;;;;;5250508;28;20448;-50
2022/10/06 12:43:56;;;;;;;5.83;2.00;;;18.00;58.10;;;;;;5255279;28;20445;-52
2022/10/06 12:46:42;;;;;;;5.00;1.80;;;17.70;58.00;;;;;;5252803;28;20420;-49
2022/10/06 12:49:35;;;;;;;28.17;13.33;;;17.70;58.50;;;;;;5246498;28;20952;-49
2022/10/06 12:52:34;;;;;;;7.30;5.03;;;17.70;58.30;;;;;;5222928;28;20512;-49
2022/10/06 12:55:38;;;;;;;10.60;1.73;;;17.80;57.90;;;;;;5245266;28;20406;-49
2022/10/06 12:58:17;;;;;;;8.43;2.93;;;17.70;58.20;;;;;;5243114;28;20490;-52
2022/10/06 13:00:49;;;;;;;15.23;6.93;;;17.60;58.00;;;;;;5239591;28;20570;-49
2022/10/06 13:03:24;;;;;;;7.90;3.07;;;17.60;57.00;;;;;;5234764;28;20785;-50
2022/10/06 13:05:58;;;;;;;5.77;3.10;;;17.60;57.20;;;;;;5255452;28;20431;-49
2022/10/06 13:08:35;;;;;;;5.40;1.97;;;17.60;58.00;;;;;;5255937;28;20981;-49
2022/10/06 13:11:21;;;;;;;2.30;1.53;;;17.60;58.40;;;;;;5233897;28;20544;-49
2022/10/06 13:14:07;;;;;;;2.07;1.00;;;17.70;59.20;;;;;;5235074;28;20421;-49
2022/10/06 13:16:41;;;;;;;2.70;1.70;;;17.70;58.80;;;;;;5251688;28;20424;-49
2022/10/06 13:19:34;;;;;;;4.53;3.13;;;17.70;59.50;;;;;;5244396;28;20428;-49
2022/10/06 13:22:04;;;;;;;4.10;2.30;;;17.70;59.00;;;;;;5247697;28;20892;-50
2022/10/06 13:24:35;;;;;;;2.23;1.53;;;17.70;59.10;;;;;;5233892;28;20458;-50
2022/10/06 13:27:14;;;;;;;9.87;2.17;;;17.70;58.30;;;;;;5266523;28;20688;-50
2022/10/06 13:29:45;;;;;;;2.23;1.63;;;17.80;58.80;;;;;;5247428;28;20249;-49
2022/10/06 13:32:17;;;;;;;3.50;1.67;;;17.80;58.80;;;;;;5231335;28;20512;-49
2022/10/06 13:34:48;;;;;;;4.47;1.73;;;18.00;58.90;;;;;;5249050;28;20555;-50
2022/10/06 13:37:18;;;;;;;8.40;1.83;;;18.10;58.40;;;;;;5247357;28;20447;-49
2022/10/06 13:39:49;;;;;;;4.53;0.97;;;18.20;58.40;;;;;;5242851;28;20640;-50
2022/10/06 13:42:22;;;;;;;4.80;1.90;;;18.20;57.60;;;;;;5260234;28;20233;-50
2022/10/06 13:45:00;;;;;;;8.13;1.67;;;18.20;56.50;;;;;;5245203;28;20183;-51
2022/10/06 13:47:32;;;;;;;1.23;1.10;;;18.10;56.70;;;;;;5243461;28;20534;-49